sensor_id;sensor_type;location;lat;lon;timestamp;pressure;altitude;pressure_sealevel;temperature;humidity
60417;BME280;46263;44.726;10.396;2022-11-23T00:00:23;98839.44;;;11.92;66.32
60417;BME280;46263;44.726;10.396;2022-11-23T00:02:57;98851.91;;;11.98;65.91
60417;BME280;46263;44.726;10.396;2022-11-23T00:05:24;98850.06;;;11.93;65.69
60417;BME280;46263;44.726;10.396;2022-11-23T00:07:50;98849.69;;;11.97;66.17
60417;BME280;46263;44.726;10.396;2022-11-23T00:10:15;98851.91;;;11.98;66.42
60417;BME280;46263;44.726;10.396;2022-11-23T00:12:41;98850.69;;;11.85;66.92
60417;BME280;46263;44.726;10.396;2022-11-23T00:15:07;98842.22;;;11.92;66.72
60417;BME280;46263;44.726;10.396;2022-11-23T00:17:33;98843.16;;;11.94;67.01
60417;BME280;46263;44.726;10.396;2022-11-23T00:19:58;98848.41;;;11.91;67.11
60417;BME280;46263;44.726;10.396;2022-11-23T00:22:24;98854.00;;;11.91;66.54
60417;BME280;46263;44.726;10.396;2022-11-23T00:24:49;98864.63;;;11.92;67.02
60417;BME280;46263;44.726;10.396;2022-11-23T00:27:15;98862.06;;;11.87;67.25
60417;BME280;46263;44.726;10.396;2022-11-23T00:29:40;98859.41;;;11.89;66.64
60417;BME280;46263;44.726;10.396;2022-11-23T00:32:06;98866.50;;;11.90;66.69
60417;BME280;46263;44.726;10.396;2022-11-23T00:34:31;98862.41;;;11.91;65.16
60417;BME280;46263;44.726;10.396;2022-11-23T00:36:57;98869.13;;;11.88;65.53
60417;BME280;46263;44.726;10.396;2022-11-23T00:39:22;98862.97;;;11.89;65.86
60417;BME280;46263;44.726;10.396;2022-11-23T00:41:47;98865.19;;;11.91;65.07
60417;BME280;46263;44.726;10.396;2022-11-23T00:44:13;98859.47;;;11.81;63.71
60417;BME280;46263;44.726;10.396;2022-11-23T00:46:38;98866.47;;;11.65;63.96
60417;BME280;46263;44.726;10.396;2022-11-23T00:49:04;98871.84;;;11.71;63.70
60417;BME280;46263;44.726;10.396;2022-11-23T00:51:33;98875.19;;;11.69;64.01
60417;BME280;46263;44.726;10.396;2022-11-23T00:53:59;98869.56;;;11.77;62.95
60417;BME280;46263;44.726;10.396;2022-11-23T00:56:25;98876.28;;;11.81;63.26
60417;BME280;46263;44.726;10.396;2022-11-23T00:58:53;98871.78;;;11.86;62.83
60417;BME280;46263;44.726;10.396;2022-11-23T01:01:24;98870.88;;;11.76;63.96
60417;BME280;46263;44.726;10.396;2022-11-23T01:03:52;98879.28;;;11.76;64.47
60417;BME280;46263;44.726;10.396;2022-11-23T01:06:22;98873.66;;;11.83;65.24
60417;BME280;46263;44.726;10.396;2022-11-23T01:08:49;98878.50;;;11.83;65.00
60417;BME280;46263;44.726;10.396;2022-11-23T01:11:16;98881.88;;;11.81;65.24
60417;BME280;46263;44.726;10.396;2022-11-23T01:13:42;98875.91;;;11.77;64.80
60417;BME280;46263;44.726;10.396;2022-11-23T01:16:13;98883.38;;;11.75;64.88
60417;BME280;46263;44.726;10.396;2022-11-23T01:18:39;98880.00;;;11.76;64.78
60417;BME280;46263;44.726;10.396;2022-11-23T01:21:05;98880.41;;;11.73;64.13
60417;BME280;46263;44.726;10.396;2022-11-23T01:23:30;98886.75;;;11.73;62.26
60417;BME280;46263;44.726;10.396;2022-11-23T01:25:56;98885.22;;;11.80;61.21
60417;BME280;46263;44.726;10.396;2022-11-23T01:28:21;98887.66;;;11.83;61.22
60417;BME280;46263;44.726;10.396;2022-11-23T01:30:47;98886.72;;;11.81;63.25
60417;BME280;46263;44.726;10.396;2022-11-23T01:33:12;98894.94;;;11.79;62.99
60417;BME280;46263;44.726;10.396;2022-11-23T01:35:38;98891.00;;;11.82;61.98
60417;BME280;46263;44.726;10.396;2022-11-23T01:38:04;98896.59;;;11.82;61.41
60417;BME280;46263;44.726;10.396;2022-11-23T01:40:30;98893.63;;;11.80;60.78
60417;BME280;46263;44.726;10.396;2022-11-23T01:42:59;98899.06;;;11.70;61.37
60417;BME280;46263;44.726;10.396;2022-11-23T01:45:40;98893.53;;;11.63;61.62
60417;BME280;46263;44.726;10.396;2022-11-23T01:48:19;98909.03;;;11.56;62.08
60417;BME280;46263;44.726;10.396;2022-11-23T01:50:48;98909.59;;;11.55;61.51
60417;BME280;46263;44.726;10.396;2022-11-23T01:53:14;98904.75;;;11.55;61.83
60417;BME280;46263;44.726;10.396;2022-11-23T01:55:42;98915.94;;;11.55;61.15
60417;BME280;46263;44.726;10.396;2022-11-23T01:58:11;98926.38;;;11.55;63.82
60417;BME280;46263;44.726;10.396;2022-11-23T02:00:38;98932.34;;;11.59;63.56
60417;BME280;46263;44.726;10.396;2022-11-23T02:03:04;98932.34;;;11.59;63.24
60417;BME280;46263;44.726;10.396;2022-11-23T02:05:34;98933.44;;;11.56;62.25
60417;BME280;46263;44.726;10.396;2022-11-23T02:08:01;98940.19;;;11.53;62.28
60417;BME280;46263;44.726;10.396;2022-11-23T02:10:29;98931.78;;;11.45;62.28
60417;BME280;46263;44.726;10.396;2022-11-23T02:13:00;98923.59;;;11.40;61.96
60417;BME280;46263;44.726;10.396;2022-11-23T02:15:26;98923.06;;;11.34;61.86
60417;BME280;46263;44.726;10.396;2022-11-23T02:17:51;98926.59;;;11.34;62.27
60417;BME280;46263;44.726;10.396;2022-11-23T02:20:17;98934.63;;;11.30;63.34
60417;BME280;46263;44.726;10.396;2022-11-23T02:25:29;98938.00;;;11.29;62.25
60417;BME280;46263;44.726;10.396;2022-11-23T02:27:58;98944.88;;;11.28;61.73
60417;BME280;46263;44.726;10.396;2022-11-23T02:30:24;98940.22;;;11.23;61.58
60417;BME280;46263;44.726;10.396;2022-11-23T02:32:49;98942.13;;;11.13;62.07
60417;BME280;46263;44.726;10.396;2022-11-23T02:35:15;98941.38;;;11.05;62.13
60417;BME280;46263;44.726;10.396;2022-11-23T02:37:41;98955.53;;;10.92;62.21
60417;BME280;46263;44.726;10.396;2022-11-23T02:40:31;98956.69;;;10.89;62.19
60417;BME280;46263;44.726;10.396;2022-11-23T02:42:58;98957.78;;;10.86;62.01
60417;BME280;46263;44.726;10.396;2022-11-23T02:45:42;98975.66;;;10.83;62.11
60417;BME280;46263;44.726;10.396;2022-11-23T02:48:10;98967.84;;;10.89;61.96
60417;BME280;46263;44.726;10.396;2022-11-23T02:50:35;98976.59;;;10.93;61.68
60417;BME280;46263;44.726;10.396;2022-11-23T02:53:02;98982.00;;;10.91;61.80
60417;BME280;46263;44.726;10.396;2022-11-23T02:55:27;98979.94;;;10.99;61.88
60417;BME280;46263;44.726;10.396;2022-11-23T02:57:53;98976.41;;;10.99;61.75
60417;BME280;46263;44.726;10.396;2022-11-23T03:00:18;98990.59;;;11.01;61.08
60417;BME280;46263;44.726;10.396;2022-11-23T03:02:44;98984.06;;;10.98;60.64
60417;BME280;46263;44.726;10.396;2022-11-23T03:05:09;98994.13;;;10.94;61.26
60417;BME280;46263;44.726;10.396;2022-11-23T03:07:35;98992.63;;;10.93;60.45
60417;BME280;46263;44.726;10.396;2022-11-23T03:10:00;98993.38;;;10.86;60.80
60417;BME280;46263;44.726;10.396;2022-11-23T03:12:26;99000.44;;;10.79;60.71
60417;BME280;46263;44.726;10.396;2022-11-23T03:14:52;99003.59;;;10.68;60.67
60417;BME280;46263;44.726;10.396;2022-11-23T03:17:17;99002.84;;;10.60;60.57
60417;BME280;46263;44.726;10.396;2022-11-23T03:19:42;98999.69;;;10.56;60.96
60417;BME280;46263;44.726;10.396;2022-11-23T03:22:08;99007.31;;;10.48;61.25
60417;BME280;46263;44.726;10.396;2022-11-23T03:24:33;99010.25;;;10.43;61.41
60417;BME280;46263;44.726;10.396;2022-11-23T03:27:00;99004.47;;;10.33;61.18
60417;BME280;46263;44.726;10.396;2022-11-23T03:29:25;99003.34;;;10.29;61.47
60417;BME280;46263;44.726;10.396;2022-11-23T03:31:52;99005.34;;;10.14;61.08
60417;BME280;46263;44.726;10.396;2022-11-23T03:34:18;99013.19;;;10.23;60.69
60417;BME280;46263;44.726;10.396;2022-11-23T03:36:43;99011.28;;;10.10;60.55
60417;BME280;46263;44.726;10.396;2022-11-23T03:39:09;99011.13;;;10.16;60.53
60417;BME280;46263;44.726;10.396;2022-11-23T03:41:34;99013.94;;;10.31;60.29
60417;BME280;46263;44.726;10.396;2022-11-23T03:44:00;99008.94;;;10.36;60.15
60417;BME280;46263;44.726;10.396;2022-11-23T03:46:25;99004.47;;;10.41;61.20
60417;BME280;46263;44.726;10.396;2022-11-23T03:48:50;98991.81;;;10.40;61.46
60417;BME280;46263;44.726;10.396;2022-11-23T03:51:16;99002.97;;;10.40;61.72
60417;BME280;46263;44.726;10.396;2022-11-23T03:53:41;99008.94;;;10.36;60.58
60417;BME280;46263;44.726;10.396;2022-11-23T03:56:07;99011.34;;;10.32;59.82
60417;BME280;46263;44.726;10.396;2022-11-23T03:58:33;99010.00;;;10.19;59.80
60417;BME280;46263;44.726;10.396;2022-11-23T04:00:58;99009.22;;;10.11;60.16
60417;BME280;46263;44.726;10.396;2022-11-23T04:03:23;99004.19;;;10.09;59.82
60417;BME280;46263;44.726;10.396;2022-11-23T04:05:49;99004.75;;;10.08;59.96
60417;BME280;46263;44.726;10.396;2022-11-23T04:08:14;99001.38;;;10.02;59.18
60417;BME280;46263;44.726;10.396;2022-11-23T04:10:40;99003.56;;;9.96;59.03
60417;BME280;46263;44.726;10.396;2022-11-23T04:13:05;99009.56;;;10.00;59.21
60417;BME280;46263;44.726;10.396;2022-11-23T04:15:31;99004.34;;;10.04;59.35
60417;BME280;46263;44.726;10.396;2022-11-23T04:17:56;99007.56;;;10.08;58.87
60417;BME280;46263;44.726;10.396;2022-11-23T04:20:21;99006.78;;;10.07;61.10
60417;BME280;46263;44.726;10.396;2022-11-23T04:22:47;99010.13;;;10.06;59.35
60417;BME280;46263;44.726;10.396;2022-11-23T04:25:12;99009.03;;;10.09;60.41
60417;BME280;46263;44.726;10.396;2022-11-23T04:27:38;99010.13;;;10.06;60.27
60417;BME280;46263;44.726;10.396;2022-11-23T04:30:04;99011.22;;;10.03;60.31
60417;BME280;46263;44.726;10.396;2022-11-23T04:32:29;99010.50;;;10.02;60.93
60417;BME280;46263;44.726;10.396;2022-11-23T04:34:55;99030.16;;;9.97;59.96
60417;BME280;46263;44.726;10.396;2022-11-23T04:37:20;99032.72;;;9.87;59.57
60417;BME280;46263;44.726;10.396;2022-11-23T04:39:46;99034.19;;;9.81;59.68
60417;BME280;46263;44.726;10.396;2022-11-23T04:42:11;99028.59;;;9.81;59.81
60417;BME280;46263;44.726;10.396;2022-11-23T04:44:37;99032.47;;;9.78;59.49
60417;BME280;46263;44.726;10.396;2022-11-23T04:47:03;99033.97;;;9.79;59.36
60417;BME280;46263;44.726;10.396;2022-11-23T04:49:28;99027.50;;;9.84;59.06
60417;BME280;46263;44.726;10.396;2022-11-23T04:51:54;99017.84;;;9.85;58.97
60417;BME280;46263;44.726;10.396;2022-11-23T04:54:19;99024.16;;;9.85;59.02
60417;BME280;46263;44.726;10.396;2022-11-23T04:56:45;99037.91;;;9.83;59.12
60417;BME280;46263;44.726;10.396;2022-11-23T04:59:10;99042.34;;;9.79;58.89
60417;BME280;46263;44.726;10.396;2022-11-23T05:01:35;99035.97;;;9.71;58.65
60417;BME280;46263;44.726;10.396;2022-11-23T05:04:01;99030.59;;;9.73;58.63
60417;BME280;46263;44.726;10.396;2022-11-23T05:06:26;99034.09;;;9.66;58.38
60417;BME280;46263;44.726;10.396;2022-11-23T05:08:52;99044.75;;;9.75;57.86
60417;BME280;46263;44.726;10.396;2022-11-23T05:11:18;99033.81;;;9.77;58.05
60417;BME280;46263;44.726;10.396;2022-11-23T05:13:44;99046.06;;;9.81;57.82
60417;BME280;46263;44.726;10.396;2022-11-23T05:16:10;99045.75;;;9.85;58.30
60417;BME280;46263;44.726;10.396;2022-11-23T05:18:35;99040.53;;;9.89;58.47
60417;BME280;46263;44.726;10.396;2022-11-23T05:21:01;99039.59;;;9.86;58.20
60417;BME280;46263;44.726;10.396;2022-11-23T05:23:26;99034.31;;;9.75;58.43
60417;BME280;46263;44.726;10.396;2022-11-23T05:25:52;99036.75;;;9.71;58.70
60417;BME280;46263;44.726;10.396;2022-11-23T05:28:19;99047.63;;;9.62;58.19
60417;BME280;46263;44.726;10.396;2022-11-23T05:30:44;99045.97;;;9.59;58.11
60417;BME280;46263;44.726;10.396;2022-11-23T05:33:10;99055.25;;;9.61;58.31
60417;BME280;46263;44.726;10.396;2022-11-23T05:35:36;99063.88;;;9.71;57.97
60417;BME280;46263;44.726;10.396;2022-11-23T05:38:02;99055.13;;;9.67;59.51
60417;BME280;46263;44.726;10.396;2022-11-23T05:40:27;99054.00;;;9.70;59.09
60417;BME280;46263;44.726;10.396;2022-11-23T05:42:54;99043.75;;;9.65;58.00
60417;BME280;46263;44.726;10.396;2022-11-23T05:45:20;99050.91;;;9.53;57.46
60417;BME280;46263;44.726;10.396;2022-11-23T05:47:56;99053.31;;;9.49;57.85
60417;BME280;46263;44.726;10.396;2022-11-23T05:50:23;99057.41;;;9.48;57.48
60417;BME280;46263;44.726;10.396;2022-11-23T05:52:49;99062.94;;;9.41;57.44
60417;BME280;46263;44.726;10.396;2022-11-23T05:55:15;99067.97;;;9.42;57.97
60417;BME280;46263;44.726;10.396;2022-11-23T05:57:40;99061.47;;;9.47;58.05
60417;BME280;46263;44.726;10.396;2022-11-23T06:00:07;99062.59;;;9.44;57.82
60417;BME280;46263;44.726;10.396;2022-11-23T06:02:35;99057.75;;;9.45;57.82
60417;BME280;46263;44.726;10.396;2022-11-23T06:05:00;99068.16;;;9.44;57.79
60417;BME280;46263;44.726;10.396;2022-11-23T06:07:26;99070.34;;;9.38;57.16
60417;BME280;46263;44.726;10.396;2022-11-23T06:09:51;99068.25;;;9.31;56.96
60417;BME280;46263;44.726;10.396;2022-11-23T06:12:16;99079.25;;;9.37;56.78
60417;BME280;46263;44.726;10.396;2022-11-23T06:14:42;99072.88;;;9.29;57.35
60417;BME280;46263;44.726;10.396;2022-11-23T06:17:07;99068.84;;;9.17;57.59
60417;BME280;46263;44.726;10.396;2022-11-23T06:19:33;99079.63;;;9.13;57.67
60417;BME280;46263;44.726;10.396;2022-11-23T06:21:58;99081.66;;;9.12;57.96
60417;BME280;46263;44.726;10.396;2022-11-23T06:24:24;99089.81;;;9.10;57.53
60417;BME280;46263;44.726;10.396;2022-11-23T06:26:50;99089.59;;;9.08;57.63
60417;BME280;46263;44.726;10.396;2022-11-23T06:29:19;99102.38;;;9.04;57.88
60417;BME280;46263;44.726;10.396;2022-11-23T06:31:45;99106.94;;;9.14;57.56
60417;BME280;46263;44.726;10.396;2022-11-23T06:34:11;99107.00;;;9.22;57.86
60417;BME280;46263;44.726;10.396;2022-11-23T06:36:36;99121.56;;;9.28;57.84
60417;BME280;46263;44.726;10.396;2022-11-23T06:39:02;99121.63;;;9.35;57.29
60417;BME280;46263;44.726;10.396;2022-11-23T06:41:28;99119.66;;;9.43;57.07
60417;BME280;46263;44.726;10.396;2022-11-23T06:43:53;99130.97;;;9.45;57.23
60417;BME280;46263;44.726;10.396;2022-11-23T06:46:19;99139.84;;;9.36;57.31
60417;BME280;46263;44.726;10.396;2022-11-23T06:48:45;99146.72;;;9.35;57.67
60417;BME280;46263;44.726;10.396;2022-11-23T06:51:11;99155.22;;;9.30;57.30
60417;BME280;46263;44.726;10.396;2022-11-23T06:53:36;99155.69;;;9.41;57.13
60417;BME280;46263;44.726;10.396;2022-11-23T06:56:02;99158.13;;;9.45;56.96
60417;BME280;46263;44.726;10.396;2022-11-23T06:58:28;99163.09;;;9.39;56.74
60417;BME280;46263;44.726;10.396;2022-11-23T07:00:53;99169.69;;;9.49;56.98
60417;BME280;46263;44.726;10.396;2022-11-23T07:03:21;99178.19;;;9.63;57.61
60417;BME280;46263;44.726;10.396;2022-11-23T07:05:47;99173.59;;;9.73;58.31
60417;BME280;46263;44.726;10.396;2022-11-23T07:08:12;99171.78;;;9.76;58.20
60417;BME280;46263;44.726;10.396;2022-11-23T07:10:38;99167.53;;;9.82;58.14
60417;BME280;46263;44.726;10.396;2022-11-23T07:13:04;99178.16;;;9.84;57.50
60417;BME280;46263;44.726;10.396;2022-11-23T07:15:30;99190.47;;;9.88;56.72
60417;BME280;46263;44.726;10.396;2022-11-23T07:17:56;99187.72;;;9.96;56.41
60417;BME280;46263;44.726;10.396;2022-11-23T07:20:21;99203.19;;;9.97;56.65
60417;BME280;46263;44.726;10.396;2022-11-23T07:22:47;99201.69;;;9.96;56.40
60417;BME280;46263;44.726;10.396;2022-11-23T07:25:12;99212.00;;;10.01;56.20
60417;BME280;46263;44.726;10.396;2022-11-23T07:27:42;99203.63;;;10.01;56.33
60417;BME280;46263;44.726;10.396;2022-11-23T07:30:09;99219.94;;;9.97;57.04
60417;BME280;46263;44.726;10.396;2022-11-23T07:32:34;99221.22;;;10.16;58.32
60417;BME280;46263;44.726;10.396;2022-11-23T07:34:59;99226.09;;;10.23;58.84
60417;BME280;46263;44.726;10.396;2022-11-23T07:37:25;99238.81;;;10.32;60.01
60417;BME280;46263;44.726;10.396;2022-11-23T07:39:51;99239.97;;;10.36;58.38
60417;BME280;46263;44.726;10.396;2022-11-23T07:42:18;99241.13;;;10.40;57.62
60417;BME280;46263;44.726;10.396;2022-11-23T07:44:44;99237.97;;;10.44;58.00
60417;BME280;46263;44.726;10.396;2022-11-23T07:47:09;99241.75;;;10.54;57.79
60417;BME280;46263;44.726;10.396;2022-11-23T07:49:35;99238.41;;;10.55;58.93
60417;BME280;46263;44.726;10.396;2022-11-23T07:52:00;99236.91;;;10.54;58.83
60417;BME280;46263;44.726;10.396;2022-11-23T07:54:26;99243.09;;;10.60;59.42
60417;BME280;46263;44.726;10.396;2022-11-23T07:56:51;99235.66;;;10.63;58.89
60417;BME280;46263;44.726;10.396;2022-11-23T07:59:16;99241.28;;;10.70;57.60
60417;BME280;46263;44.726;10.396;2022-11-23T08:01:42;99244.28;;;10.72;58.71
60417;BME280;46263;44.726;10.396;2022-11-23T08:04:07;99239.84;;;10.77;59.07
60417;BME280;46263;44.726;10.396;2022-11-23T08:06:33;99242.47;;;10.82;59.39
60417;BME280;46263;44.726;10.396;2022-11-23T08:08:58;99247.81;;;10.73;59.31
60417;BME280;46263;44.726;10.396;2022-11-23T08:11:24;99250.97;;;10.69;58.86
60417;BME280;46263;44.726;10.396;2022-11-23T08:13:49;99261.28;;;10.82;58.10
60417;BME280;46263;44.726;10.396;2022-11-23T08:16:14;99257.03;;;10.88;57.96
60417;BME280;46263;44.726;10.396;2022-11-23T08:18:40;99249.94;;;10.95;58.03
60417;BME280;46263;44.726;10.396;2022-11-23T08:21:05;99249.25;;;11.02;57.98
60417;BME280;46263;44.726;10.396;2022-11-23T08:23:31;99253.88;;;10.99;58.71
60417;BME280;46263;44.726;10.396;2022-11-23T08:25:56;99254.44;;;10.90;57.50
60417;BME280;46263;44.726;10.396;2022-11-23T08:28:22;99263.13;;;10.79;59.22
60417;BME280;46263;44.726;10.396;2022-11-23T08:30:48;99271.81;;;10.68;59.40
60417;BME280;46263;44.726;10.396;2022-11-23T08:33:13;99272.13;;;10.57;58.53
60417;BME280;46263;44.726;10.396;2022-11-23T08:35:40;99281.41;;;10.52;59.12
60417;BME280;46263;44.726;10.396;2022-11-23T08:38:08;99277.72;;;10.57;59.79
60417;BME280;46263;44.726;10.396;2022-11-23T08:40:34;99282.75;;;10.59;60.65
60417;BME280;46263;44.726;10.396;2022-11-23T08:43:00;99281.50;;;10.67;60.00
60417;BME280;46263;44.726;10.396;2022-11-23T08:45:26;99280.19;;;10.68;59.87
60417;BME280;46263;44.726;10.396;2022-11-23T08:47:52;99275.03;;;10.72;59.12
60417;BME280;46263;44.726;10.396;2022-11-23T08:50:18;99282.91;;;10.53;57.76
60417;BME280;46263;44.726;10.396;2022-11-23T08:52:44;99291.94;;;10.67;57.66
60417;BME280;46263;44.726;10.396;2022-11-23T08:55:10;99295.44;;;10.60;56.37
60417;BME280;46263;44.726;10.396;2022-11-23T08:57:35;99299.75;;;10.96;56.07
60417;BME280;46263;44.726;10.396;2022-11-23T09:00:03;99298.78;;;10.94;56.19
60417;BME280;46263;44.726;10.396;2022-11-23T09:02:28;99302.47;;;10.81;56.42
60417;BME280;46263;44.726;10.396;2022-11-23T09:04:54;99307.06;;;10.79;56.92
60417;BME280;46263;44.726;10.396;2022-11-23T09:07:19;99310.06;;;10.81;58.07
60417;BME280;46263;44.726;10.396;2022-11-23T09:09:45;99297.31;;;10.93;57.53
60417;BME280;46263;44.726;10.396;2022-11-23T09:12:10;99304.03;;;10.97;57.36
60417;BME280;46263;44.726;10.396;2022-11-23T09:14:36;99301.09;;;11.10;56.46
60417;BME280;46263;44.726;10.396;2022-11-23T09:17:02;99303.03;;;11.22;57.00
60417;BME280;46263;44.726;10.396;2022-11-23T09:19:28;99307.56;;;11.48;56.90
60417;BME280;46263;44.726;10.396;2022-11-23T09:21:53;99312.03;;;11.43;56.97
60417;BME280;46263;44.726;10.396;2022-11-23T09:24:19;99320.97;;;11.34;58.05
60417;BME280;46263;44.726;10.396;2022-11-23T09:26:45;99324.72;;;11.37;58.48
60417;BME280;46263;44.726;10.396;2022-11-23T09:29:10;99331.72;;;11.58;58.26
60417;BME280;46263;44.726;10.396;2022-11-23T09:31:37;99334.53;;;11.58;59.04
60417;BME280;46263;44.726;10.396;2022-11-23T09:34:03;99341.06;;;11.61;59.23
60417;BME280;46263;44.726;10.396;2022-11-23T09:36:29;99343.44;;;11.57;60.53
60417;BME280;46263;44.726;10.396;2022-11-23T09:38:54;99340.88;;;11.66;59.31
60417;BME280;46263;44.726;10.396;2022-11-23T09:44:04;99340.84;;;11.59;59.52
60417;BME280;46263;44.726;10.396;2022-11-23T09:52:31;99340.03;;;12.16;57.51
60417;BME280;46263;44.726;10.396;2022-11-23T09:55:00;99345.66;;;12.23;55.33
60417;BME280;46263;44.726;10.396;2022-11-23T09:57:30;99338.75;;;12.24;53.77
60417;BME280;46263;44.726;10.396;2022-11-23T10:00:02;99342.66;;;12.36;54.09
60417;BME280;46263;44.726;10.396;2022-11-23T10:02:29;99334.25;;;12.29;53.73
60417;BME280;46263;44.726;10.396;2022-11-23T10:04:58;99332.41;;;12.31;54.39
60417;BME280;46263;44.726;10.396;2022-11-23T10:13:35;99323.44;;;12.40;54.58
60417;BME280;46263;44.726;10.396;2022-11-23T10:15:39;99325.47;;;12.40;54.45
60417;BME280;46263;44.726;10.396;2022-11-23T10:18:32;99308.84;;;12.49;54.48
60417;BME280;46263;44.726;10.396;2022-11-23T10:21:08;99311.41;;;12.77;54.79
60417;BME280;46263;44.726;10.396;2022-11-23T10:23:47;99311.94;;;13.05;55.30
60417;BME280;46263;44.726;10.396;2022-11-23T10:26:18;99315.88;;;13.02;54.93
60417;BME280;46263;44.726;10.396;2022-11-23T10:28:46;99318.84;;;13.12;54.96
60417;BME280;46263;44.726;10.396;2022-11-23T10:31:13;99317.72;;;13.07;54.72
60417;BME280;46263;44.726;10.396;2022-11-23T10:34:07;99312.75;;;12.91;54.80
60417;BME280;46263;44.726;10.396;2022-11-23T10:36:35;99308.59;;;12.99;55.16
60417;BME280;46263;44.726;10.396;2022-11-23T10:39:04;99306.00;;;12.94;55.49
60417;BME280;46263;44.726;10.396;2022-11-23T10:41:34;99310.84;;;12.86;54.80
60417;BME280;46263;44.726;10.396;2022-11-23T10:44:15;99313.66;;;12.86;56.08
60417;BME280;46263;44.726;10.396;2022-11-23T10:46:43;99315.16;;;12.94;56.51
60417;BME280;46263;44.726;10.396;2022-11-23T10:51:56;99308.34;;;13.20;56.29
60417;BME280;46263;44.726;10.396;2022-11-23T10:56:54;99315.25;;;13.19;54.71
60417;BME280;46263;44.726;10.396;2022-11-23T10:59:32;99306.38;;;13.37;53.59
60417;BME280;46263;44.726;10.396;2022-11-23T11:04:36;99308.75;;;13.55;56.39
60417;BME280;46263;44.726;10.396;2022-11-23T11:07:28;99310.31;;;13.73;56.07
60417;BME280;46263;44.726;10.396;2022-11-23T11:09:57;99310.25;;;13.88;55.22
60417;BME280;46263;44.726;10.396;2022-11-23T11:12:24;99315.91;;;13.81;55.54
60417;BME280;46263;44.726;10.396;2022-11-23T11:14:57;99314.59;;;13.82;54.97
60417;BME280;46263;44.726;10.396;2022-11-23T11:17:32;99310.69;;;13.77;53.14
60417;BME280;46263;44.726;10.396;2022-11-23T11:20:22;99307.47;;;13.81;53.73
60417;BME280;46263;44.726;10.396;2022-11-23T11:22:47;99307.97;;;13.94;54.51
60417;BME280;46263;44.726;10.396;2022-11-23T11:25:36;99312.41;;;13.97;53.71
60417;BME280;46263;44.726;10.396;2022-11-23T11:28:04;99310.59;;;13.92;54.18
60417;BME280;46263;44.726;10.396;2022-11-23T11:30:45;99307.19;;;13.94;52.53
60417;BME280;46263;44.726;10.396;2022-11-23T11:33:19;99299.66;;;13.72;51.56
60417;BME280;46263;44.726;10.396;2022-11-23T11:35:50;99306.03;;;13.72;51.36
60417;BME280;46263;44.726;10.396;2022-11-23T11:38:26;99299.75;;;13.57;53.00
60417;BME280;46263;44.726;10.396;2022-11-23T11:40:55;99293.75;;;13.60;54.09
60417;BME280;46263;44.726;10.396;2022-11-23T11:45:54;99297.53;;;13.87;54.41
60417;BME280;46263;44.726;10.396;2022-11-23T11:48:37;99291.44;;;13.98;54.26
60417;BME280;46263;44.726;10.396;2022-11-23T11:51:53;99291.66;;;14.25;54.18
60417;BME280;46263;44.726;10.396;2022-11-23T11:54:04;99299.16;;;14.22;53.99
60417;BME280;46263;44.726;10.396;2022-11-23T11:56:37;99297.31;;;14.41;54.19
60417;BME280;46263;44.726;10.396;2022-11-23T11:59:27;99296.91;;;14.45;54.27
60417;BME280;46263;44.726;10.396;2022-11-23T12:01:56;99293.97;;;14.35;55.83
60417;BME280;46263;44.726;10.396;2022-11-23T12:05:17;99293.88;;;14.26;54.88
60417;BME280;46263;44.726;10.396;2022-11-23T12:08:01;99290.56;;;14.20;55.56
60417;BME280;46263;44.726;10.396;2022-11-23T12:10:36;99288.28;;;13.94;55.59
60417;BME280;46263;44.726;10.396;2022-11-23T12:13:03;99287.44;;;14.33;54.85
60417;BME280;46263;44.726;10.396;2022-11-23T12:24:49;99281.78;;;14.40;56.12
60417;BME280;46263;44.726;10.396;2022-11-23T12:30:10;99282.59;;;14.50;56.12
60417;BME280;46263;44.726;10.396;2022-11-23T12:32:51;99279.91;;;14.60;55.81
60417;BME280;46263;44.726;10.396;2022-11-23T12:38:19;99278.16;;;14.64;54.27
60417;BME280;46263;44.726;10.396;2022-11-23T12:49:39;99275.06;;;14.36;52.31
60417;BME280;46263;44.726;10.396;2022-11-23T12:57:36;99280.84;;;14.38;52.22
60417;BME280;46263;44.726;10.396;2022-11-23T13:00:13;99288.06;;;14.48;51.84
60417;BME280;46263;44.726;10.396;2022-11-23T13:11:34;99294.28;;;14.64;52.25
60417;BME280;46263;44.726;10.396;2022-11-23T13:19:38;99306.47;;;14.83;52.71
60417;BME280;46263;44.726;10.396;2022-11-23T13:22:13;99295.63;;;14.97;51.86
60417;BME280;46263;44.726;10.396;2022-11-23T13:30:09;99301.91;;;14.71;51.70
60417;BME280;46263;44.726;10.396;2022-11-23T13:40:41;99308.47;;;14.73;49.99
60417;BME280;46263;44.726;10.396;2022-11-23T13:43:39;99309.38;;;14.76;53.33
60417;BME280;46263;44.726;10.396;2022-11-23T13:46:24;99308.69;;;14.68;53.14
60417;BME280;46263;44.726;10.396;2022-11-23T13:48:55;99310.69;;;14.75;53.40
60417;BME280;46263;44.726;10.396;2022-11-23T13:51:28;99310.97;;;14.62;53.24
60417;BME280;46263;44.726;10.396;2022-11-23T13:54:19;99331.75;;;14.66;54.77
60417;BME280;46263;44.726;10.396;2022-11-23T13:56:56;99314.66;;;14.72;55.86
60417;BME280;46263;44.726;10.396;2022-11-23T14:04:41;99318.59;;;14.52;53.56
60417;BME280;46263;44.726;10.396;2022-11-23T14:07:29;99317.59;;;14.57;52.82
60417;BME280;46263;44.726;10.396;2022-11-23T14:10:20;99319.41;;;14.62;55.70
60417;BME280;46263;44.726;10.396;2022-11-23T14:12:57;99319.09;;;14.58;55.19
60417;BME280;46263;44.726;10.396;2022-11-23T14:15:31;99324.00;;;14.57;52.94
60417;BME280;46263;44.726;10.396;2022-11-23T14:18:42;99315.56;;;14.57;55.14
60417;BME280;46263;44.726;10.396;2022-11-23T14:21:13;99328.03;;;14.64;55.46
60417;BME280;46263;44.726;10.396;2022-11-23T14:23:49;99325.81;;;14.62;54.70
60417;BME280;46263;44.726;10.396;2022-11-23T14:27:09;99327.72;;;14.60;54.74
60417;BME280;46263;44.726;10.396;2022-11-23T14:30:01;99318.88;;;14.63;54.65